createdAt,value
2019-01-10T00:00:17.432Z,41.33
2019-01-10T00:02:44.650Z,39.15
2019-01-10T00:05:12.092Z,39.50
2019-01-10T00:07:39.140Z,39.20
2019-01-10T00:10:06.925Z,39.13
2019-01-10T00:12:39.421Z,39.05
2019-01-10T00:15:03.055Z,38.23
2019-01-10T00:17:30.316Z,37.03
2019-01-10T00:19:57.323Z,40.55
2019-01-10T00:22:24.030Z,35.25
2019-01-10T00:24:51.142Z,37.20
2019-01-10T00:27:17.865Z,35.58
2019-01-10T00:29:44.970Z,38.85
2019-01-10T00:32:12.818Z,34.58
2019-01-10T00:34:39.956Z,39.55
2019-01-10T00:37:07.086Z,40.83
2019-01-10T00:39:34.449Z,39.05
2019-01-10T00:42:01.600Z,39.95
2019-01-10T00:44:28.286Z,40.63
2019-01-10T00:46:55.016Z,39.75
2019-01-10T00:49:21.692Z,40.00
2019-01-10T00:51:49.520Z,38.60
2019-01-10T00:54:16.269Z,37.38
2019-01-10T00:56:43.369Z,36.15
2019-01-10T00:59:10.522Z,37.10
2019-01-10T01:01:37.667Z,35.13
2019-01-10T01:04:04.836Z,33.90
2019-01-10T01:06:32.656Z,33.02
2019-01-10T01:08:59.810Z,34.45
2019-01-10T01:11:26.807Z,33.55
2019-01-10T01:13:54.590Z,32.03
2019-01-10T01:16:22.459Z,33.18
2019-01-10T01:18:50.203Z,33.85
2019-01-10T01:21:17.300Z,35.83
2019-01-10T01:23:45.037Z,35.55
2019-01-10T01:26:12.782Z,37.75
2019-01-10T01:28:39.923Z,37.88
2019-01-10T01:31:08.840Z,37.40
2019-01-10T01:33:36.631Z,38.05
2019-01-10T01:36:04.370Z,39.55
2019-01-10T01:38:31.302Z,36.95
2019-01-10T01:41:00.149Z,39.13
2019-01-10T01:43:27.984Z,39.45
2019-01-10T01:45:55.179Z,38.88
2019-01-10T01:48:22.356Z,40.55
2019-01-10T01:50:49.409Z,39.85
2019-01-10T01:53:17.600Z,41.28
2019-01-10T01:55:45.354Z,40.00
2019-01-10T01:58:13.108Z,40.80
2019-01-10T02:00:40.363Z,37.60
2019-01-10T02:03:08.126Z,39.55
2019-01-10T02:05:35.912Z,39.23
2019-01-10T02:08:03.774Z,40.63
2019-01-10T02:10:30.505Z,39.40
2019-01-10T02:12:58.264Z,39.42
2019-01-10T02:15:25.490Z,40.85
2019-01-10T02:17:52.175Z,41.90
2019-01-10T02:22:55.297Z,41.45
2019-01-10T02:25:23.108Z,41.25
2019-01-10T02:27:50.192Z,42.60
2019-01-10T02:30:17.331Z,40.20
2019-01-10T02:32:44.398Z,41.73
2019-01-10T02:35:11.560Z,39.45
2019-01-10T02:37:39.023Z,43.33
2019-01-10T02:40:05.944Z,42.15
2019-01-10T02:42:33.012Z,40.23
2019-01-10T02:45:00.191Z,41.28
2019-01-10T02:47:28.860Z,40.52
2019-01-10T02:49:56.001Z,41.75
2019-01-10T02:52:23.183Z,42.55
2019-01-10T02:54:50.287Z,41.58
2019-01-10T02:57:17.386Z,41.85
2019-01-10T02:59:44.586Z,44.63
2019-01-10T03:02:11.731Z,45.17
2019-01-10T03:04:38.903Z,43.30
2019-01-10T03:07:07.219Z,45.67
2019-01-10T03:09:34.960Z,44.18
2019-01-10T03:12:02.104Z,44.58
2019-01-10T03:14:29.124Z,41.92
2019-01-10T03:16:56.781Z,45.58
2019-01-10T03:19:23.504Z,46.75
2019-01-10T03:21:50.651Z,44.15
2019-01-10T03:24:18.506Z,45.28
2019-01-10T03:26:45.190Z,44.95
2019-01-10T03:29:11.946Z,44.38
2019-01-10T03:31:38.957Z,46.00
2019-01-10T03:34:05.867Z,40.33
2019-01-10T03:36:33.010Z,44.50
2019-01-10T03:39:00.770Z,39.92
2019-01-10T03:41:27.884Z,39.50
2019-01-10T03:43:55.033Z,41.18
2019-01-10T03:46:22.134Z,41.37
2019-01-10T03:48:49.250Z,42.55
2019-01-10T03:51:17.014Z,39.60
2019-01-10T03:53:43.725Z,37.20
2019-01-10T03:56:10.754Z,41.30
2019-01-10T03:58:37.954Z,38.83
2019-01-10T04:01:05.102Z,38.73
2019-01-10T04:03:32.124Z,39.45
2019-01-10T04:05:59.923Z,39.03
2019-01-10T04:08:27.045Z,39.98
2019-01-10T04:10:54.141Z,44.20
2019-01-10T04:13:21.888Z,39.73
2019-01-10T04:15:49.054Z,41.83
2019-01-10T04:18:16.149Z,42.10
2019-01-10T04:20:43.283Z,39.05
2019-01-10T04:23:11.140Z,37.20
2019-01-10T04:25:38.881Z,38.28
2019-01-10T04:28:05.986Z,33.30
2019-01-10T04:30:33.032Z,35.60
2019-01-10T04:33:00.866Z,38.17
2019-01-10T04:35:28.048Z,37.15
2019-01-10T04:37:55.112Z,36.53
2019-01-10T04:40:22.119Z,32.42
2019-01-10T04:42:49.311Z,36.28
2019-01-10T04:45:16.441Z,36.70
2019-01-10T04:47:43.627Z,34.70
2019-01-10T04:50:10.358Z,40.05
2019-01-10T04:52:37.466Z,38.85
2019-01-10T04:55:05.182Z,39.05
2019-01-10T04:57:33.371Z,39.60
2019-01-10T05:00:00.512Z,38.28
2019-01-10T05:02:27.490Z,38.38
2019-01-10T05:04:54.673Z,37.70
2019-01-10T05:07:21.772Z,40.10
2019-01-10T05:09:48.871Z,41.40
2019-01-10T05:12:16.041Z,39.88
2019-01-10T05:14:43.050Z,39.33
2019-01-10T05:17:10.235Z,40.78
2019-01-10T05:19:37.492Z,40.55
2019-01-10T05:22:04.498Z,39.65
2019-01-10T05:24:32.353Z,41.60
2019-01-10T05:26:59.568Z,40.17
2019-01-10T05:29:27.336Z,40.92
2019-01-10T05:31:54.427Z,39.95
2019-01-10T05:34:21.658Z,43.25
2019-01-10T05:36:49.396Z,40.12
2019-01-10T05:39:16.119Z,40.45
2019-01-10T05:41:54.629Z,37.13
2019-01-10T05:44:26.616Z,39.95
2019-01-10T05:46:51.405Z,40.38
2019-01-10T05:49:18.439Z,38.40
2019-01-10T05:51:45.576Z,38.73
2019-01-10T05:54:12.791Z,38.02
2019-01-10T05:56:39.882Z,39.03
2019-01-10T05:59:07.708Z,39.80
2019-01-10T06:01:34.433Z,38.17
2019-01-10T06:04:01.542Z,39.20
2019-01-10T06:06:28.695Z,39.13
2019-01-10T06:08:56.063Z,39.73
2019-01-10T06:11:22.759Z,39.73
2019-01-10T06:13:49.810Z,38.60
2019-01-10T06:16:16.655Z,42.23
2019-01-10T06:18:43.309Z,41.68
2019-01-10T06:21:09.953Z,41.18
2019-01-10T06:23:37.096Z,45.08
2019-01-10T06:26:04.142Z,44.03
2019-01-10T06:28:31.218Z,42.78
2019-01-10T06:30:58.318Z,42.67
2019-01-10T06:33:27.094Z,41.37
2019-01-10T06:35:54.181Z,39.23
2019-01-10T06:38:21.431Z,43.73
2019-01-10T06:40:48.078Z,42.38
2019-01-10T06:43:14.776Z,43.38
2019-01-10T06:45:41.548Z,41.30
2019-01-10T06:48:08.606Z,41.92
2019-01-10T06:50:35.448Z,43.15
2019-01-10T06:53:02.227Z,40.30
2019-01-10T06:55:28.935Z,40.38
2019-01-10T06:57:55.649Z,42.55
2019-01-10T07:00:22.811Z,40.23
2019-01-10T07:02:49.861Z,40.98
2019-01-10T07:05:16.907Z,37.55
2019-01-10T07:07:43.619Z,39.95
2019-01-10T07:10:10.723Z,40.48
2019-01-10T07:12:37.429Z,35.58
2019-01-10T07:15:04.591Z,40.17
2019-01-10T07:17:31.656Z,36.30
2019-01-10T07:19:58.690Z,41.00
2019-01-10T07:22:25.834Z,40.43
2019-01-10T07:24:52.486Z,39.73
2019-01-10T07:27:19.654Z,39.70
2019-01-10T07:29:46.750Z,39.88
2019-01-10T07:32:13.846Z,41.85
2019-01-10T07:34:40.875Z,43.00
2019-01-10T07:37:13.014Z,41.60
2019-01-10T07:39:36.308Z,40.25
2019-01-10T07:42:03.511Z,38.90
2019-01-10T07:44:30.263Z,39.88
2019-01-10T07:46:57.349Z,39.25
2019-01-10T07:49:24.440Z,38.35
2019-01-10T07:51:51.519Z,38.30
2019-01-10T07:54:18.588Z,41.20
2019-01-10T07:56:45.628Z,38.98
2019-01-10T07:59:12.413Z,36.15
2019-01-10T08:01:39.530Z,37.80
2019-01-10T08:04:06.179Z,36.50
2019-01-10T08:06:33.286Z,33.75
2019-01-10T08:09:00.007Z,38.53
2019-01-10T08:11:26.682Z,37.93
2019-01-10T08:13:53.845Z,40.03
2019-01-10T08:16:20.996Z,38.55
2019-01-10T08:18:48.039Z,39.48
2019-01-10T08:21:15.230Z,40.12
2019-01-10T08:23:42.344Z,38.65
2019-01-10T08:26:09.063Z,42.60
2019-01-10T08:28:35.829Z,38.63
2019-01-10T08:31:02.851Z,37.60
2019-01-10T08:33:29.511Z,38.33
2019-01-10T08:35:56.261Z,39.23
2019-01-10T08:38:22.975Z,37.80
2019-01-10T08:40:49.630Z,38.02
2019-01-10T08:43:17.082Z,38.02
2019-01-10T08:45:44.131Z,38.67
2019-01-10T08:48:10.784Z,37.42
2019-01-10T08:50:37.567Z,35.78
2019-01-10T08:53:04.214Z,35.13
2019-01-10T08:55:31.321Z,35.48
2019-01-10T08:57:58.099Z,36.83
2019-01-10T09:00:25.193Z,36.40
2019-01-10T09:02:51.854Z,36.80
2019-01-10T09:05:18.568Z,35.63
2019-01-10T09:07:45.596Z,34.75
2019-01-10T09:10:12.769Z,34.83
2019-01-10T09:12:39.899Z,34.25
2019-01-10T09:15:06.970Z,35.55
2019-01-10T09:17:34.039Z,34.30
2019-01-10T09:20:00.750Z,34.15
2019-01-10T09:22:27.785Z,32.95
2019-01-10T09:24:54.856Z,31.50
2019-01-10T09:27:22.294Z,27.80
2019-01-10T09:29:49.387Z,28.27
2019-01-10T09:32:16.082Z,30.92
2019-01-10T09:34:52.709Z,32.30
2019-01-10T09:37:19.482Z,31.37
2019-01-10T09:39:47.522Z,31.97
2019-01-10T09:42:14.175Z,32.17
2019-01-10T09:44:41.399Z,30.92
2019-01-10T09:47:08.515Z,31.42
2019-01-10T09:49:36.527Z,32.98
2019-01-10T09:52:04.212Z,30.52
2019-01-10T09:54:34.053Z,31.45
2019-01-10T09:57:02.456Z,31.50
2019-01-10T09:59:29.094Z,30.75
2019-01-10T10:01:57.644Z,30.97
2019-01-10T10:04:30.383Z,31.05
2019-01-10T10:06:57.138Z,34.00
2019-01-10T10:09:24.807Z,30.65
2019-01-10T10:11:53.185Z,31.05
2019-01-10T10:14:20.222Z,35.50
2019-01-10T10:16:47.917Z,31.45
2019-01-10T10:22:11.915Z,33.95
2019-01-10T10:24:38.611Z,32.45
2019-01-10T10:27:05.757Z,35.78
2019-01-10T10:29:33.012Z,34.60
2019-01-10T10:32:00.477Z,31.48
2019-01-10T10:34:43.436Z,34.85
2019-01-10T10:37:02.675Z,31.93
2019-01-10T10:39:30.241Z,32.63
2019-01-10T10:41:57.364Z,34.10
2019-01-10T10:44:24.402Z,33.00
2019-01-10T10:46:51.086Z,33.33
2019-01-10T10:49:17.859Z,33.30
2019-01-10T10:51:44.573Z,32.85
2019-01-10T10:54:17.483Z,32.28
2019-01-10T10:56:44.547Z,28.70
2019-01-10T10:59:11.283Z,30.43
2019-01-10T11:01:38.513Z,25.80
2019-01-10T11:04:05.768Z,25.10
2019-01-10T11:06:32.851Z,26.90
2019-01-10T11:09:08.804Z,25.27
2019-01-10T11:11:28.130Z,26.90
2019-01-10T11:13:54.774Z,27.00
2019-01-10T11:16:21.528Z,25.00
2019-01-10T11:18:48.517Z,27.07
2019-01-10T11:21:15.536Z,29.55
2019-01-10T11:23:42.269Z,26.35
2019-01-10T11:26:09.430Z,26.80
2019-01-10T11:28:36.092Z,26.55
2019-01-10T11:31:03.136Z,29.55
2019-01-10T11:33:30.286Z,28.85
2019-01-10T11:35:57.457Z,29.10
2019-01-10T11:38:24.586Z,25.82
2019-01-10T11:40:51.876Z,27.20
2019-01-10T11:43:18.991Z,29.02
2019-01-10T11:45:46.781Z,29.57
2019-01-10T11:48:15.635Z,29.45
2019-01-10T11:50:42.704Z,28.02
2019-01-10T11:53:10.555Z,28.40
2019-01-10T11:55:37.712Z,29.60
2019-01-10T11:58:04.760Z,28.30
2019-01-10T12:00:31.816Z,32.25
2019-01-10T12:02:58.642Z,30.45
2019-01-10T12:05:25.693Z,28.87
2019-01-10T12:07:52.756Z,28.15
2019-01-10T12:10:20.097Z,28.20
2019-01-10T12:12:47.150Z,28.25
2019-01-10T12:15:14.325Z,27.40
2019-01-10T12:17:41.059Z,30.82
2019-01-10T12:20:07.777Z,29.02
2019-01-10T12:22:34.454Z,32.38
2019-01-10T12:25:02.199Z,29.57
2019-01-10T12:27:28.918Z,27.93
2019-01-10T12:29:55.970Z,26.65
2019-01-10T12:32:23.685Z,27.30
2019-01-10T12:34:50.762Z,29.35
2019-01-10T12:37:17.838Z,28.02
2019-01-10T12:39:44.998Z,32.13
2019-01-10T12:42:11.716Z,31.62
2019-01-10T12:44:38.373Z,35.60
2019-01-10T12:47:05.676Z,35.30
2019-01-10T12:49:32.323Z,38.65
2019-01-10T12:51:59.243Z,35.55
2019-01-10T12:54:26.447Z,37.50
2019-01-10T12:56:54.142Z,34.03
2019-01-10T12:59:21.904Z,32.53
2019-01-10T13:01:48.703Z,35.13
2019-01-10T13:04:15.905Z,33.80
2019-01-10T13:06:42.614Z,34.45
2019-01-10T13:09:09.690Z,34.08
2019-01-10T13:11:36.351Z,34.90
2019-01-10T13:14:05.415Z,32.48
2019-01-10T13:16:31.473Z,33.05
2019-01-10T13:18:58.188Z,33.28
2019-01-10T13:21:24.880Z,37.80
2019-01-10T13:23:52.052Z,37.38
2019-01-10T13:26:18.748Z,41.63
2019-01-10T13:28:45.839Z,31.90
2019-01-10T13:31:12.986Z,32.75
2019-01-10T13:33:40.085Z,32.15
2019-01-10T13:36:06.736Z,32.50
2019-01-10T13:38:34.596Z,35.58
2019-01-10T13:41:01.663Z,29.32
2019-01-10T13:43:28.394Z,33.10
2019-01-10T13:45:55.508Z,33.28
2019-01-10T13:48:22.923Z,30.15
2019-01-10T13:50:50.041Z,31.30
2019-01-10T13:53:16.833Z,30.15
2019-01-10T13:55:43.486Z,33.63
2019-01-10T13:58:10.641Z,29.95
2019-01-10T14:00:37.795Z,34.55
2019-01-10T14:03:04.944Z,33.95
2019-01-10T14:05:32.031Z,31.48
2019-01-10T14:07:58.760Z,33.33
2019-01-10T14:10:26.491Z,32.17
2019-01-10T14:12:53.602Z,33.10
2019-01-10T14:15:20.782Z,36.50
2019-01-10T14:17:47.802Z,37.03
2019-01-10T14:20:14.458Z,38.33
2019-01-10T14:22:41.506Z,37.85
2019-01-10T14:25:08.556Z,39.40
2019-01-10T14:27:35.279Z,40.00
2019-01-10T14:30:02.440Z,37.85
2019-01-10T14:32:29.505Z,39.00
2019-01-10T14:34:56.546Z,40.10
2019-01-10T14:37:23.687Z,38.58
2019-01-10T14:39:50.740Z,37.95
2019-01-10T14:42:17.915Z,38.38
2019-01-10T14:44:44.628Z,38.78
2019-01-10T14:47:11.673Z,35.58
2019-01-10T14:49:38.392Z,38.17
2019-01-10T14:52:05.567Z,34.85
2019-01-10T14:54:32.250Z,37.98
2019-01-10T14:56:59.359Z,37.15
2019-01-10T14:59:26.131Z,38.02
2019-01-10T15:01:53.270Z,35.35
2019-01-10T15:04:20.396Z,34.67
2019-01-10T15:06:47.150Z,35.95
2019-01-10T15:09:13.881Z,35.58
2019-01-10T15:11:41.618Z,37.42
2019-01-10T15:14:08.848Z,38.42
2019-01-10T15:16:35.571Z,36.88
2019-01-10T15:19:02.692Z,34.27
2019-01-10T15:21:29.657Z,35.10
2019-01-10T15:23:56.387Z,34.38
2019-01-10T15:26:23.130Z,31.45
2019-01-10T15:28:50.265Z,32.83
2019-01-10T15:31:17.563Z,32.38
2019-01-10T15:33:44.671Z,33.25
2019-01-10T15:36:12.766Z,34.35
2019-01-10T15:38:39.487Z,37.95
2019-01-10T15:41:06.669Z,37.45
2019-01-10T15:43:33.758Z,37.85
2019-01-10T15:46:01.576Z,40.33
2019-01-10T15:48:28.274Z,40.08
2019-01-10T15:50:55.029Z,41.58
2019-01-10T15:53:21.973Z,39.50
2019-01-10T15:55:49.118Z,38.98
2019-01-10T15:58:15.931Z,37.48
2019-01-10T16:00:42.653Z,37.05
2019-01-10T16:03:09.779Z,38.70
2019-01-10T16:05:36.514Z,40.15
2019-01-10T16:08:03.672Z,38.80
2019-01-10T16:10:31.728Z,38.85
2019-01-10T16:12:59.479Z,37.17
2019-01-10T16:15:27.532Z,37.95
2019-01-10T16:17:54.223Z,37.90
2019-01-10T16:20:21.643Z,37.85
2019-01-10T16:22:48.696Z,36.73
2019-01-10T16:25:15.719Z,40.28
2019-01-10T16:27:42.520Z,39.65
2019-01-10T16:30:09.653Z,43.20
2019-01-10T16:32:36.333Z,39.67
2019-01-10T16:35:03.555Z,37.85
2019-01-10T16:37:30.682Z,42.23
2019-01-10T16:39:57.420Z,39.75
2019-01-10T16:42:24.159Z,41.65
2019-01-10T16:44:51.906Z,39.18
2019-01-10T16:47:19.040Z,38.88
2019-01-10T16:49:46.201Z,37.85
2019-01-10T16:52:13.385Z,39.55
2019-01-10T16:54:40.526Z,40.25
2019-01-10T16:57:08.381Z,39.70
2019-01-10T16:59:38.858Z,38.78
2019-01-10T17:02:05.268Z,37.93
2019-01-10T17:04:31.974Z,37.95
2019-01-10T17:06:59.149Z,37.85
2019-01-10T17:09:25.865Z,36.60
2019-01-10T17:11:53.055Z,38.35
2019-01-10T17:14:20.184Z,39.35
2019-01-10T17:16:50.088Z,37.83
2019-01-10T17:19:15.613Z,43.17
2019-01-10T17:21:42.649Z,40.17
2019-01-10T17:24:09.704Z,41.05
2019-01-10T17:26:36.455Z,41.45
2019-01-10T17:29:03.487Z,41.00
2019-01-10T17:31:30.542Z,41.58
2019-01-10T17:33:57.264Z,41.85
2019-01-10T17:36:23.946Z,40.35
2019-01-10T17:38:51.068Z,42.75
2019-01-10T17:41:17.834Z,40.10
2019-01-10T17:43:44.894Z,38.80
2019-01-10T17:46:11.597Z,40.65
2019-01-10T17:48:38.307Z,37.73
2019-01-10T17:51:05.457Z,39.20
2019-01-10T17:53:32.565Z,37.35
2019-01-10T17:55:59.352Z,38.35
2019-01-10T17:58:26.378Z,37.78
2019-01-10T18:00:53.068Z,40.28
2019-01-10T18:03:19.790Z,38.67
2019-01-10T18:05:46.989Z,36.33
2019-01-10T18:08:14.101Z,36.98
2019-01-10T18:10:42.048Z,40.55
2019-01-10T18:13:15.646Z,36.33
2019-01-10T18:15:43.172Z,36.85
2019-01-10T18:18:10.897Z,34.88
2019-01-10T18:20:38.606Z,36.17
2019-01-10T18:23:05.713Z,36.93
2019-01-10T18:26:01.271Z,34.30
2019-01-10T18:28:02.455Z,35.85
2019-01-10T18:30:30.278Z,37.75
2019-01-10T18:32:57.489Z,37.53
2019-01-10T18:35:26.436Z,39.23
2019-01-10T18:37:53.149Z,36.42
2019-01-10T18:40:20.397Z,41.90
2019-01-10T18:42:47.345Z,39.10
2019-01-10T18:45:15.484Z,37.75
2019-01-10T18:47:42.703Z,36.17
2019-01-10T18:50:09.796Z,36.88
2019-01-10T18:52:36.964Z,37.58
2019-01-10T18:55:03.696Z,39.33
2019-01-10T18:57:30.835Z,39.92
2019-01-10T19:00:03.673Z,38.75
2019-01-10T19:02:26.347Z,38.60
2019-01-10T19:04:53.063Z,38.45
2019-01-10T19:07:19.709Z,36.55
2019-01-10T19:09:46.509Z,37.58
2019-01-10T19:12:16.493Z,36.65
2019-01-10T19:14:43.214Z,35.98
2019-01-10T19:17:10.702Z,36.53
2019-01-10T19:19:37.426Z,36.05
2019-01-10T19:22:04.106Z,37.03
2019-01-10T19:24:31.571Z,37.80
2019-01-10T19:26:58.732Z,36.73
2019-01-10T19:29:26.565Z,37.05
2019-01-10T19:31:53.315Z,34.73
2019-01-10T19:34:19.972Z,35.95
2019-01-10T19:36:47.066Z,36.42
2019-01-10T19:39:14.077Z,37.08
2019-01-10T19:41:41.207Z,36.08
2019-01-10T19:44:07.885Z,37.13
2019-01-10T19:46:34.862Z,36.20
2019-01-10T19:49:01.581Z,34.75
2019-01-10T19:51:28.491Z,35.70
2019-01-10T19:53:55.220Z,34.10
2019-01-10T19:56:22.352Z,34.10
2019-01-10T19:58:49.506Z,34.63
2019-01-10T20:01:16.649Z,31.42
2019-01-10T20:03:43.689Z,33.28
2019-01-10T20:06:10.349Z,32.83
2019-01-10T20:08:37.497Z,33.50
2019-01-10T20:11:04.552Z,34.05
2019-01-10T20:13:31.249Z,31.50
2019-01-10T20:15:57.966Z,33.58
2019-01-10T20:18:24.637Z,33.78
2019-01-10T20:20:51.700Z,32.50
2019-01-10T20:23:18.483Z,33.02
2019-01-10T20:25:45.133Z,33.08
2019-01-10T20:28:12.202Z,32.17
2019-01-10T20:30:39.428Z,33.05
2019-01-10T20:33:06.095Z,31.93
2019-01-10T20:35:32.769Z,31.37
2019-01-10T20:38:00.090Z,32.10
2019-01-10T20:40:26.735Z,34.75
2019-01-10T20:42:53.470Z,35.78
2019-01-10T20:45:20.226Z,33.00
2019-01-10T20:47:46.924Z,33.40
2019-01-10T20:50:14.009Z,33.38
2019-01-10T20:52:40.762Z,33.33
2019-01-10T20:55:07.457Z,34.20
2019-01-10T20:57:34.526Z,32.80
2019-01-10T21:00:01.286Z,33.40
2019-01-10T21:02:27.973Z,33.30
2019-01-10T21:04:54.663Z,32.63
2019-01-10T21:07:21.442Z,30.32
2019-01-10T21:09:48.167Z,35.05
2019-01-10T21:12:14.859Z,34.58
2019-01-10T21:14:41.590Z,35.35
2019-01-10T21:17:08.698Z,36.98
2019-01-10T21:19:35.702Z,35.52
2019-01-10T21:22:03.515Z,37.33
2019-01-10T21:24:30.641Z,34.50
2019-01-10T21:26:57.805Z,36.10
2019-01-10T21:29:24.554Z,38.53
2019-01-10T21:31:51.246Z,39.60
2019-01-10T21:34:17.931Z,37.33
2019-01-10T21:36:46.115Z,35.90
2019-01-10T21:39:12.938Z,35.85
2019-01-10T21:41:39.619Z,34.38
2019-01-10T21:44:06.739Z,34.80
2019-01-10T21:46:33.449Z,35.08
2019-01-10T21:49:00.946Z,33.92
2019-01-10T21:51:28.607Z,33.70
2019-01-10T21:53:55.615Z,32.93
2019-01-10T21:56:22.343Z,32.70
2019-01-10T21:58:49.506Z,34.23
2019-01-10T22:01:16.668Z,32.38
2019-01-10T22:03:43.704Z,34.90
2019-01-10T22:06:10.428Z,35.45
2019-01-10T22:08:37.126Z,36.10
2019-01-10T22:11:04.265Z,35.50
2019-01-10T22:13:31.410Z,34.75
2019-01-10T22:15:58.416Z,34.50
2019-01-10T22:18:25.479Z,35.08
2019-01-10T22:20:52.252Z,34.35
2019-01-10T22:23:19.374Z,33.85
2019-01-10T22:25:46.076Z,35.33
2019-01-10T22:28:13.287Z,35.78
2019-01-10T22:30:40.011Z,35.88
2019-01-10T22:33:07.067Z,36.20
2019-01-10T22:35:34.116Z,34.80
2019-01-10T22:38:01.150Z,36.60
2019-01-10T22:40:28.179Z,35.58
2019-01-10T22:42:55.160Z,34.65
2019-01-10T22:45:22.276Z,35.52
2019-01-10T22:47:49.013Z,34.50
2019-01-10T22:50:16.031Z,35.08
2019-01-10T22:52:43.129Z,36.40
2019-01-10T22:55:09.830Z,34.63
2019-01-10T22:57:36.594Z,34.15
2019-01-10T23:00:03.670Z,34.30
2019-01-10T23:02:30.690Z,36.40
2019-01-10T23:04:58.615Z,34.40
2019-01-10T23:07:25.726Z,34.38
2019-01-10T23:09:52.764Z,33.00
2019-01-10T23:12:19.538Z,33.40
2019-01-10T23:14:46.667Z,34.00
2019-01-10T23:17:13.354Z,34.48
2019-01-10T23:19:40.556Z,31.15
2019-01-10T23:22:07.709Z,32.08
2019-01-10T23:24:34.757Z,31.82
2019-01-10T23:27:02.561Z,33.15
2019-01-10T23:29:29.697Z,31.60
2019-01-10T23:31:56.373Z,32.00
2019-01-10T23:34:23.579Z,32.38
2019-01-10T23:36:50.691Z,32.75
2019-01-10T23:39:19.029Z,28.67
2019-01-10T23:41:46.452Z,30.75
2019-01-10T23:44:14.262Z,29.98
2019-01-10T23:46:41.336Z,30.15
2019-01-10T23:49:08.515Z,31.57
2019-01-10T23:51:35.681Z,29.40
2019-01-10T23:54:02.829Z,28.60
2019-01-10T23:56:29.546Z,30.05
2019-01-10T23:58:56.723Z,29.12
